Time;durP1;ratioP1;P1;durP2;ratioP2;P2;SDS_P1;SDS_P2;PMS_P1;PMS_P2;Temp;Humidity;BMP_temperature;BMP_pressure;BME280_temperature;BME280_humidity;BME280_pressure;Samples;Min_cycle;Max_cycle;Signal;HPM_P1;HPM_P2
2023/06/23 00:01:01;;;;;;;1.30;1.25;;;;;;;;;;5081776;28;20245;-72
2023/06/23 00:03:27;;;;;;;1.38;1.10;;;;;;;;;;5082034;28;20196;-72
2023/06/23 00:05:53;;;;;;;1.08;1.08;;;;;;;;;;5081840;28;20522;-72
2023/06/23 00:08:20;;;;;;;1.23;1.13;;;;;;;;;;5081845;28;20226;-72
2023/06/23 00:10:47;;;;;;;2.60;1.25;;;;;;;;;;5081476;28;20217;-72
2023/06/23 00:13:16;;;;;;;1.27;1.17;;;;;;;;;;5082119;28;20265;-72
2023/06/23 00:15:42;;;;;;;3.05;1.60;;;;;;;;;;5081985;28;20401;-72
2023/06/23 00:18:08;;;;;;;1.50;1.40;;;;;;;;;;5081666;28;20202;-72
2023/06/23 00:20:36;;;;;;;1.25;1.23;;;;;;;;;;5081399;28;20485;-72
2023/06/23 00:23:02;;;;;;;2.60;1.50;;;;;;;;;;5081485;28;20196;-72
2023/06/23 00:25:28;;;;;;;1.58;1.38;;;;;;;;;;5081523;28;20204;-72
2023/06/23 00:27:55;;;;;;;1.40;1.30;;;;;;;;;;5081521;28;20216;-72
2023/06/23 00:30:23;;;;;;;2.58;1.40;;;;;;;;;;5084225;28;20565;-72
2023/06/23 00:32:50;;;;;;;1.30;1.30;;;;;;;;;;5085522;28;20195;-72
2023/06/23 00:35:16;;;;;;;1.52;1.48;;;;;;;;;;5085157;28;20196;-72
2023/06/23 00:37:43;;;;;;;1.58;1.48;;;;;;;;;;5085086;28;20197;-72
2023/06/23 00:40:11;;;;;;;1.48;1.48;;;;;;;;;;5085353;28;20214;-72
2023/06/23 00:42:46;;;;;;;1.70;1.60;;;;;;;;;;5085360;28;20241;-72
2023/06/23 00:45:13;;;;;;;1.40;1.30;;;;;;;;;;5085364;28;20223;-72
2023/06/23 00:47:42;;;;;;;1.50;1.40;;;;;;;;;;5085305;28;20196;-72
2023/06/23 00:50:10;;;;;;;2.08;1.27;;;;;;;;;;5084805;28;20603;-72
2023/06/23 00:52:37;;;;;;;1.65;1.58;;;;;;;;;;5085023;28;20332;-72
2023/06/23 00:55:03;;;;;;;1.27;1.27;;;;;;;;;;5085364;28;20488;-72
2023/06/23 00:57:30;;;;;;;1.27;1.27;;;;;;;;;;5085140;28;20242;-72
2023/06/23 00:59:56;;;;;;;4.72;1.40;;;;;;;;;;5084990;28;20202;-72
2023/06/23 01:02:22;;;;;;;1.90;1.50;;;;;;;;;;5085607;28;20218;-72
2023/06/23 01:04:50;;;;;;;1.95;1.40;;;;;;;;;;5085047;28;20196;-72
2023/06/23 01:07:21;;;;;;;1.15;1.15;;;;;;;;;;5084774;28;20216;-72
2023/06/23 01:09:57;;;;;;;1.38;1.38;;;;;;;;;;5084959;28;20531;-72
2023/06/23 01:12:26;;;;;;;1.40;1.40;;;;;;;;;;5084785;28;20195;-72
2023/06/23 01:14:56;;;;;;;1.13;1.02;;;;;;;;;;5084656;28;20197;-72
2023/06/23 01:17:25;;;;;;;1.67;1.00;;;;;;;;;;5084816;28;20196;-72
2023/06/23 01:19:59;;;;;;;0.90;0.90;;;;;;;;;;5084519;28;20192;-72
2023/06/23 01:22:30;;;;;;;1.35;1.20;;;;;;;;;;5084468;28;20264;-72
2023/06/23 01:25:00;;;;;;;0.93;0.93;;;;;;;;;;5084590;28;20332;-72
2023/06/23 01:27:34;;;;;;;0.90;0.90;;;;;;;;;;5084496;28;20479;-72
2023/06/23 01:30:04;;;;;;;1.42;1.25;;;;;;;;;;5084102;28;20211;-72
2023/06/23 01:32:34;;;;;;;1.30;1.20;;;;;;;;;;5084426;28;20196;-72
2023/06/23 01:35:04;;;;;;;1.00;1.00;;;;;;;;;;5084630;28;20504;-72
2023/06/23 01:37:32;;;;;;;1.00;1.00;;;;;;;;;;5084348;28;20209;-72
2023/06/23 01:40:04;;;;;;;2.38;1.33;;;;;;;;;;5084041;28;20238;-72
2023/06/23 01:42:32;;;;;;;1.17;1.15;;;;;;;;;;5083429;28;20196;-72
2023/06/23 01:45:00;;;;;;;1.33;1.23;;;;;;;;;;5083621;28;20200;-72
2023/06/23 01:47:29;;;;;;;2.67;1.55;;;;;;;;;;5083938;28;20226;-72
2023/06/23 01:49:58;;;;;;;1.70;1.70;;;;;;;;;;5083767;28;20362;-72
2023/06/23 01:52:25;;;;;;;2.20;2.10;;;;;;;;;;5083955;28;20196;-72
2023/06/23 01:54:53;;;;;;;3.00;2.90;;;;;;;;;;5083801;28;20196;-72
2023/06/23 01:57:19;;;;;;;3.53;3.22;;;;;;;;;;5083671;28;20200;-72
2023/06/23 01:59:47;;;;;;;3.35;3.17;;;;;;;;;;5083352;28;20512;-72
2023/06/23 02:02:15;;;;;;;3.65;3.45;;;;;;;;;;5083484;28;20197;-72
2023/06/23 02:04:44;;;;;;;4.03;3.72;;;;;;;;;;5083367;28;20196;-72
2023/06/23 02:07:12;;;;;;;3.50;3.30;;;;;;;;;;5083289;28;20392;-72
2023/06/23 02:09:40;;;;;;;5.25;3.95;;;;;;;;;;5083135;28;20220;-72
2023/06/23 02:12:07;;;;;;;3.95;3.75;;;;;;;;;;5083020;28;20238;-72
2023/06/23 02:14:34;;;;;;;4.90;4.43;;;;;;;;;;5083304;28;20202;-72
2023/06/23 02:17:02;;;;;;;4.68;4.38;;;;;;;;;;5083342;28;20204;-72
2023/06/23 02:19:28;;;;;;;4.35;3.92;;;;;;;;;;5083108;28;20196;-72
2023/06/23 02:21:56;;;;;;;4.50;4.20;;;;;;;;;;5083235;28;20202;-72
2023/06/23 02:24:23;;;;;;;4.22;4.03;;;;;;;;;;5083279;28;20391;-72
2023/06/23 02:26:49;;;;;;;4.47;4.13;;;;;;;;;;5082946;28;20196;-72
2023/06/23 02:29:16;;;;;;;4.32;4.03;;;;;;;;;;5082995;28;20200;-72
2023/06/23 02:31:43;;;;;;;4.85;4.05;;;;;;;;;;5083180;28;20217;-72
2023/06/23 02:34:09;;;;;;;4.40;4.07;;;;;;;;;;5083083;28;20204;-72
2023/06/23 02:36:37;;;;;;;3.78;3.58;;;;;;;;;;5083293;28;20606;-72
2023/06/23 02:39:06;;;;;;;3.17;2.97;;;;;;;;;;5082810;28;20372;-72
2023/06/23 02:41:35;;;;;;;3.30;3.20;;;;;;;;;;5082938;28;20199;-72
2023/06/23 02:44:02;;;;;;;3.53;3.20;;;;;;;;;;5083392;28;20202;-72
2023/06/23 02:46:32;;;;;;;3.22;3.03;;;;;;;;;;5083138;28;20197;-72
2023/06/23 02:49:03;;;;;;;2.83;2.72;;;;;;;;;;5082659;28;20197;-72
2023/06/23 02:51:30;;;;;;;2.90;2.70;;;;;;;;;;5082751;28;20227;-72
2023/06/23 02:54:00;;;;;;;2.80;2.70;;;;;;;;;;5081621;28;20204;-72
2023/06/23 02:56:29;;;;;;;3.00;2.90;;;;;;;;;;5082864;28;20418;-72
2023/06/23 02:58:58;;;;;;;3.00;2.90;;;;;;;;;;5082557;28;20203;-72
2023/06/23 03:01:26;;;;;;;3.50;3.30;;;;;;;;;;5082584;28;20192;-72
2023/06/23 03:03:54;;;;;;;3.40;3.30;;;;;;;;;;5082512;28;20196;-72
2023/06/23 03:06:21;;;;;;;3.25;3.05;;;;;;;;;;5082355;28;20466;-72
2023/06/23 03:08:48;;;;;;;3.65;3.42;;;;;;;;;;5082202;28;20651;-72
2023/06/23 03:11:15;;;;;;;3.60;3.45;;;;;;;;;;5082541;28;20220;-72
2023/06/23 03:13:43;;;;;;;4.10;3.80;;;;;;;;;;5082582;28;20212;-72
2023/06/23 03:16:12;;;;;;;4.10;3.90;;;;;;;;;;5082641;28;20504;-72
2023/06/23 03:18:42;;;;;;;4.30;4.10;;;;;;;;;;5082075;28;20196;-72
2023/06/23 03:21:09;;;;;;;4.80;4.50;;;;;;;;;;5082393;28;20196;-72
2023/06/23 03:23:36;;;;;;;4.85;4.55;;;;;;;;;;5082490;28;20361;-72
2023/06/23 03:26:04;;;;;;;5.03;4.70;;;;;;;;;;5082322;28;20200;-72
2023/06/23 03:28:32;;;;;;;5.10;4.80;;;;;;;;;;5081983;28;20223;-72
2023/06/23 03:31:01;;;;;;;6.57;6.03;;;;;;;;;;5082521;28;20216;-72
2023/06/23 03:33:32;;;;;;;5.90;5.40;;;;;;;;;;5081965;28;20196;-72
2023/06/23 03:36:00;;;;;;;5.80;5.30;;;;;;;;;;5082534;28;20204;-72
2023/06/23 03:38:27;;;;;;;6.35;5.70;;;;;;;;;;5082605;28;20203;-72
2023/06/23 03:40:55;;;;;;;5.72;5.32;;;;;;;;;;5082245;28;20198;-72
2023/06/23 03:43:27;;;;;;;6.22;5.72;;;;;;;;;;5082266;28;20197;-72
2023/06/23 03:45:55;;;;;;;5.68;5.28;;;;;;;;;;5082062;28;20196;-72
2023/06/23 03:48:23;;;;;;;6.72;6.22;;;;;;;;;;5082001;28;20451;-72
2023/06/23 03:50:51;;;;;;;6.40;5.90;;;;;;;;;;5082069;28;20220;-72
2023/06/23 03:53:18;;;;;;;5.97;5.47;;;;;;;;;;5081939;28;20196;-72
2023/06/23 03:55:44;;;;;;;7.03;6.47;;;;;;;;;;5082030;28;20196;-72
2023/06/23 03:58:12;;;;;;;6.47;6.00;;;;;;;;;;5082049;28;20224;-72
2023/06/23 04:00:40;;;;;;;6.45;6.05;;;;;;;;;;5081660;28;20193;-72
2023/06/23 04:03:07;;;;;;;7.13;6.47;;;;;;;;;;5081998;28;20279;-72
2023/06/23 04:05:36;;;;;;;7.15;6.55;;;;;;;;;;5085038;28;20510;-72
2023/06/23 04:08:03;;;;;;;7.10;6.40;;;;;;;;;;5085702;28;20204;-72
2023/06/23 04:10:29;;;;;;;7.60;7.00;;;;;;;;;;5085379;28;20228;-72
2023/06/23 04:12:56;;;;;;;7.45;6.72;;;;;;;;;;5085573;28;20218;-72
2023/06/23 04:15:24;;;;;;;8.50;7.70;;;;;;;;;;5085884;28;20508;-72
2023/06/23 04:17:51;;;;;;;7.45;6.65;;;;;;;;;;5085544;28;20196;-72
2023/06/23 04:20:19;;;;;;;7.75;7.15;;;;;;;;;;5085320;28;20200;-72
2023/06/23 04:22:47;;;;;;;9.02;7.15;;;;;;;;;;5085210;28;20205;-72
2023/06/23 04:25:14;;;;;;;12.07;7.63;;;;;;;;;;5085416;28;20538;-72
2023/06/23 04:27:42;;;;;;;8.15;7.50;;;;;;;;;;5085003;28;20262;-72
2023/06/23 04:30:09;;;;;;;8.32;7.63;;;;;;;;;;5084976;28;20211;-72
2023/06/23 04:32:36;;;;;;;7.65;6.95;;;;;;;;;;5085034;28;20203;-72
2023/06/23 04:35:05;;;;;;;8.23;7.43;;;;;;;;;;5085115;28;20196;-72
2023/06/23 04:37:32;;;;;;;7.57;6.97;;;;;;;;;;5084908;28;20203;-71
2023/06/23 04:40:02;;;;;;;8.88;7.97;;;;;;;;;;5084703;28;20202;-71
2023/06/23 04:42:34;;;;;;;7.97;7.28;;;;;;;;;;5085279;28;20181;-71
2023/06/23 04:45:01;;;;;;;9.30;8.38;;;;;;;;;;5084824;28;20215;-71
2023/06/23 04:47:30;;;;;;;8.73;7.93;;;;;;;;;;5084924;28;20452;-71
2023/06/23 04:49:58;;;;;;;11.52;8.38;;;;;;;;;;5084498;28;20197;-71
2023/06/23 04:52:24;;;;;;;9.57;8.68;;;;;;;;;;5084685;28;20227;-71
2023/06/23 04:54:53;;;;;;;9.23;8.43;;;;;;;;;;5084631;28;20231;-71
2023/06/23 04:57:22;;;;;;;13.57;8.90;;;;;;;;;;5084835;28;20203;-71
2023/06/23 04:59:52;;;;;;;9.25;8.45;;;;;;;;;;5084657;28;20550;-71
2023/06/23 05:02:19;;;;;;;11.10;9.13;;;;;;;;;;5084726;28;20192;-71
2023/06/23 05:04:47;;;;;;;10.65;9.57;;;;;;;;;;5084657;28;20196;-71
2023/06/23 05:07:14;;;;;;;10.27;8.93;;;;;;;;;;5084139;28;20407;-72
2023/06/23 05:09:42;;;;;;;10.57;9.52;;;;;;;;;;5084587;28;20518;-71
2023/06/23 05:12:10;;;;;;;10.73;9.60;;;;;;;;;;5084274;28;20216;-71
2023/06/23 05:14:40;;;;;;;10.27;9.32;;;;;;;;;;5084362;28;20196;-71
2023/06/23 05:17:08;;;;;;;11.43;9.75;;;;;;;;;;5083394;28;20267;-73
2023/06/23 05:19:35;;;;;;;10.35;9.35;;;;;;;;;;5084097;28;20209;-72
2023/06/23 05:22:02;;;;;;;11.57;10.15;;;;;;;;;;5077467;28;20208;-71
2023/06/23 05:24:29;;;;;;;12.63;10.43;;;;;;;;;;5078715;28;20258;-70
2023/06/23 05:26:56;;;;;;;13.50;12.10;;;;;;;;;;5075185;28;20517;-70
2023/06/23 05:29:23;;;;;;;13.80;11.85;;;;;;;;;;5074975;28;20417;-70
2023/06/23 05:31:51;;;;;;;12.23;10.98;;;;;;;;;;5079244;28;20224;-71
2023/06/23 05:34:18;;;;;;;13.43;12.02;;;;;;;;;;5077275;28;20218;-72
2023/06/23 05:36:44;;;;;;;15.00;11.50;;;;;;;;;;5075620;28;20216;-72
2023/06/23 05:39:11;;;;;;;14.32;12.13;;;;;;;;;;5075388;28;20675;-72
2023/06/23 05:41:37;;;;;;;15.63;13.38;;;;;;;;;;5076033;28;20223;-72
2023/06/23 05:44:04;;;;;;;13.00;11.70;;;;;;;;;;5075767;28;20468;-61
2023/06/23 05:46:31;;;;;;;15.93;12.52;;;;;;;;;;5078150;28;20214;-61
2023/06/23 05:49:01;;;;;;;14.63;12.50;;;;;;;;;;5077729;28;20219;-62
2023/06/23 05:51:28;;;;;;;13.18;11.75;;;;;;;;;;5077129;28;20584;-60
2023/06/23 05:53:56;;;;;;;18.80;12.88;;;;;;;;;;5078236;28;20546;-60
2023/06/23 05:56:24;;;;;;;16.25;12.45;;;;;;;;;;5079180;28;20216;-61
2023/06/23 05:58:54;;;;;;;14.57;13.15;;;;;;;;;;5077230;28;20418;-60
2023/06/23 06:01:22;;;;;;;16.40;13.35;;;;;;;;;;5076663;28;20201;-61
2023/06/23 06:03:58;;;;;;;15.88;13.88;;;;;;;;;;5077533;28;20208;-61
2023/06/23 06:06:26;;;;;;;14.82;13.32;;;;;;;;;;5072290;28;20212;-61
2023/06/23 06:08:53;;;;;;;16.08;13.90;;;;;;;;;;5075911;28;20216;-62
2023/06/23 06:11:20;;;;;;;17.15;13.98;;;;;;;;;;5076870;28;20248;-61
2023/06/23 06:13:47;;;;;;;16.48;13.35;;;;;;;;;;5075793;28;20235;-62
2023/06/23 06:16:14;;;;;;;17.70;14.38;;;;;;;;;;5076419;28;20213;-62
2023/06/23 06:18:41;;;;;;;18.17;14.30;;;;;;;;;;5077230;28;20219;-63
2023/06/23 06:21:08;;;;;;;18.08;14.15;;;;;;;;;;5078634;28;20407;-62
2023/06/23 06:23:36;;;;;;;18.73;14.93;;;;;;;;;;5077873;28;20216;-62
2023/06/23 06:26:03;;;;;;;20.95;14.20;;;;;;;;;;5077686;28;20213;-62
2023/06/23 06:28:30;;;;;;;21.15;14.55;;;;;;;;;;5077237;28;20694;-60
2023/06/23 06:30:57;;;;;;;19.13;14.85;;;;;;;;;;5077579;28;20638;-62
2023/06/23 06:33:24;;;;;;;16.48;14.55;;;;;;;;;;5077740;28;20218;-62
2023/06/23 06:35:52;;;;;;;16.60;14.05;;;;;;;;;;5076122;28;20211;-62
2023/06/23 06:38:20;;;;;;;14.98;13.50;;;;;;;;;;5077371;28;20266;-61
2023/06/23 06:40:49;;;;;;;15.57;13.98;;;;;;;;;;5077045;28;20214;-61
2023/06/23 06:43:16;;;;;;;16.35;13.15;;;;;;;;;;5078034;28;20216;-60
2023/06/23 06:45:43;;;;;;;16.75;13.40;;;;;;;;;;5077643;28;20623;-62
2023/06/23 06:48:09;;;;;;;16.38;13.20;;;;;;;;;;5076935;28;20213;-61
2023/06/23 06:50:36;;;;;;;15.90;12.70;;;;;;;;;;5076829;28;20212;-60
2023/06/23 06:53:03;;;;;;;14.65;13.15;;;;;;;;;;5076668;28;20235;-62
2023/06/23 06:55:29;;;;;;;13.68;12.23;;;;;;;;;;5076461;28;20211;-61
2023/06/23 06:57:57;;;;;;;16.48;13.27;;;;;;;;;;5077266;28;20288;-61
2023/06/23 07:00:24;;;;;;;15.95;12.65;;;;;;;;;;5076848;28;20212;-61
2023/06/23 07:02:50;;;;;;;15.32;13.10;;;;;;;;;;5076904;28;20212;-62
2023/06/23 07:05:17;;;;;;;18.23;13.52;;;;;;;;;;5076223;28;20212;-62
2023/06/23 07:07:45;;;;;;;15.32;12.25;;;;;;;;;;5077230;28;20238;-62
2023/06/23 07:10:12;;;;;;;14.02;11.77;;;;;;;;;;5077242;28;20212;-61
2023/06/23 07:12:39;;;;;;;17.13;12.43;;;;;;;;;;5076586;28;20291;-61
2023/06/23 07:15:08;;;;;;;15.70;12.55;;;;;;;;;;5075553;28;20552;-63
2023/06/23 07:17:34;;;;;;;14.38;12.60;;;;;;;;;;5077961;28;20208;-62
2023/06/23 07:20:00;;;;;;;13.77;11.93;;;;;;;;;;5081022;28;20215;-62
2023/06/23 07:22:27;;;;;;;13.40;11.80;;;;;;;;;;5081510;28;20232;-62
2023/06/23 07:24:54;;;;;;;14.52;12.98;;;;;;;;;;5080678;28;20200;-61
2023/06/23 07:27:21;;;;;;;15.75;13.05;;;;;;;;;;5079077;28;20272;-64
2023/06/23 07:29:47;;;;;;;14.25;12.45;;;;;;;;;;5079425;28;20214;-62
2023/06/23 07:32:15;;;;;;;14.93;11.77;;;;;;;;;;5078824;28;20231;-62
2023/06/23 07:34:41;;;;;;;19.92;15.13;;;;;;;;;;5078721;28;20250;-62
2023/06/23 07:37:09;;;;;;;20.17;13.25;;;;;;;;;;5078346;28;20208;-62
2023/06/23 07:39:35;;;;;;;13.55;12.13;;;;;;;;;;5082256;28;20203;-62
2023/06/23 07:42:01;;;;;;;16.08;13.05;;;;;;;;;;5085530;28;20211;-62
2023/06/23 07:44:27;;;;;;;16.60;11.77;;;;;;;;;;5083969;28;20415;-62
2023/06/23 07:46:54;;;;;;;13.45;12.05;;;;;;;;;;5078837;28;20388;-62
2023/06/23 07:49:21;;;;;;;18.38;12.02;;;;;;;;;;5084806;28;20207;-62
2023/06/23 07:51:48;;;;;;;14.30;11.40;;;;;;;;;;5085034;28;20301;-61
2023/06/23 07:54:15;;;;;;;11.60;10.38;;;;;;;;;;5085714;28;20215;-61
2023/06/23 07:56:42;;;;;;;12.80;10.23;;;;;;;;;;5086420;28;20215;-62
2023/06/23 07:59:09;;;;;;;11.95;9.73;;;;;;;;;;5085604;28;20214;-63
2023/06/23 08:01:35;;;;;;;11.90;10.35;;;;;;;;;;5085568;28;20212;-62
2023/06/23 08:04:01;;;;;;;12.32;11.07;;;;;;;;;;5085135;28;20480;-62
2023/06/23 08:06:29;;;;;;;11.43;10.15;;;;;;;;;;5084910;28;20207;-62
2023/06/23 08:08:56;;;;;;;10.20;9.20;;;;;;;;;;5086114;28;20212;-61
2023/06/23 08:11:22;;;;;;;10.80;9.80;;;;;;;;;;5084781;28;20212;-61
2023/06/23 08:13:49;;;;;;;10.82;9.60;;;;;;;;;;5085448;28;20215;-61
2023/06/23 08:16:16;;;;;;;11.55;9.13;;;;;;;;;;5087693;28;20204;-61
2023/06/23 08:18:42;;;;;;;12.77;9.20;;;;;;;;;;5085763;28;20244;-61
2023/06/23 08:21:10;;;;;;;10.40;9.10;;;;;;;;;;5085958;28;20211;-61
2023/06/23 08:23:38;;;;;;;10.05;9.18;;;;;;;;;;5086033;28;20203;-60
2023/06/23 08:26:04;;;;;;;13.77;9.48;;;;;;;;;;5086376;28;20204;-60
2023/06/23 08:28:31;;;;;;;9.30;8.40;;;;;;;;;;5086364;28;20286;-61
2023/06/23 08:30:57;;;;;;;11.20;9.13;;;;;;;;;;5085588;28;20204;-61
2023/06/23 08:33:23;;;;;;;10.98;8.60;;;;;;;;;;5085350;28;20541;-61
2023/06/23 08:35:50;;;;;;;11.32;8.18;;;;;;;;;;5085413;28;20211;-61
2023/06/23 08:38:16;;;;;;;13.90;9.48;;;;;;;;;;5085818;28;20204;-60
2023/06/23 08:40:45;;;;;;;9.45;8.45;;;;;;;;;;5086693;28;20208;-61
2023/06/23 08:43:12;;;;;;;10.43;9.02;;;;;;;;;;5086942;28;20496;-61
2023/06/23 08:45:40;;;;;;;11.95;9.20;;;;;;;;;;5086748;28;20269;-60
2023/06/23 08:48:07;;;;;;;10.10;9.15;;;;;;;;;;5086571;28;20497;-60
2023/06/23 08:50:33;;;;;;;9.32;8.32;;;;;;;;;;5085252;28;20212;-61
2023/06/23 08:52:59;;;;;;;10.68;8.23;;;;;;;;;;5083571;28;20547;-62
2023/06/23 08:55:26;;;;;;;8.55;7.75;;;;;;;;;;5083019;28;20231;-61
2023/06/23 08:57:53;;;;;;;10.40;8.35;;;;;;;;;;5082445;28;20204;-61
2023/06/23 09:00:21;;;;;;;8.57;7.43;;;;;;;;;;5082606;28;20465;-62
2023/06/23 09:02:47;;;;;;;9.85;8.35;;;;;;;;;;5082266;28;20222;-62
2023/06/23 09:05:13;;;;;;;9.55;8.55;;;;;;;;;;5079224;28;20393;-61
2023/06/23 09:07:40;;;;;;;9.13;8.20;;;;;;;;;;5082854;28;20220;-62
2023/06/23 09:10:06;;;;;;;10.23;8.88;;;;;;;;;;5082166;28;20208;-62
2023/06/23 09:12:33;;;;;;;11.25;8.68;;;;;;;;;;5082081;28;20235;-62
2023/06/23 09:15:01;;;;;;;11.45;9.05;;;;;;;;;;5081797;28;20208;-61
2023/06/23 09:17:28;;;;;;;8.13;7.38;;;;;;;;;;5082055;28;20279;-62
2023/06/23 09:19:55;;;;;;;9.13;7.60;;;;;;;;;;5081491;28;20621;-62
2023/06/23 09:22:21;;;;;;;9.82;7.85;;;;;;;;;;5081730;28;20240;-62
2023/06/23 09:24:48;;;;;;;10.07;9.18;;;;;;;;;;5082235;28;20223;-61
2023/06/23 09:27:14;;;;;;;9.05;7.38;;;;;;;;;;5082118;28;20563;-61
2023/06/23 09:29:41;;;;;;;9.68;8.55;;;;;;;;;;5081362;28;20212;-61
2023/06/23 09:32:09;;;;;;;8.18;7.28;;;;;;;;;;5081981;28;20227;-60
2023/06/23 09:34:37;;;;;;;8.27;7.47;;;;;;;;;;5082569;28;20245;-61
2023/06/23 09:37:07;;;;;;;9.40;7.40;;;;;;;;;;5082499;28;20503;-61
2023/06/23 09:39:34;;;;;;;7.30;6.70;;;;;;;;;;5081574;28;20215;-61
2023/06/23 09:42:00;;;;;;;6.78;6.28;;;;;;;;;;5073377;28;20204;-61
2023/06/23 09:44:34;;;;;;;8.63;7.85;;;;;;;;;;5081392;28;20522;-61
2023/06/23 09:47:00;;;;;;;7.43;6.68;;;;;;;;;;5073635;28;20207;-61
2023/06/23 09:49:28;;;;;;;7.40;6.80;;;;;;;;;;5081320;28;20208;-60
2023/06/23 09:51:54;;;;;;;7.07;6.57;;;;;;;;;;5082121;28;20499;-61
2023/06/23 09:54:30;;;;;;;7.07;6.13;;;;;;;;;;5081699;28;20473;-63
2023/06/23 09:57:01;;;;;;;8.48;7.25;;;;;;;;;;5081191;28;20214;-62
2023/06/23 09:59:28;;;;;;;10.48;7.07;;;;;;;;;;5081424;28;20483;-62
2023/06/23 10:01:54;;;;;;;7.00;6.40;;;;;;;;;;5080786;28;20208;-62
2023/06/23 10:04:21;;;;;;;9.25;6.60;;;;;;;;;;5081844;28;20546;-62
2023/06/23 10:06:48;;;;;;;7.93;7.22;;;;;;;;;;5081274;28;20208;-62
2023/06/23 10:09:15;;;;;;;6.68;6.13;;;;;;;;;;5079700;28;20282;-62
2023/06/23 10:11:41;;;;;;;6.07;5.50;;;;;;;;;;5080221;28;20208;-62
2023/06/23 10:14:10;;;;;;;5.75;5.00;;;;;;;;;;5080831;28;20570;-62
2023/06/23 10:16:37;;;;;;;4.97;4.57;;;;;;;;;;5076527;28;20210;-64
2023/06/23 10:19:04;;;;;;;5.53;4.90;;;;;;;;;;5080292;28;20211;-64
2023/06/23 10:21:31;;;;;;;6.57;5.10;;;;;;;;;;5080307;28;20204;-64
2023/06/23 10:23:59;;;;;;;6.55;5.03;;;;;;;;;;5080163;28;20207;-64
2023/06/23 10:26:26;;;;;;;5.70;5.30;;;;;;;;;;5080812;28;20434;-64
2023/06/23 10:28:54;;;;;;;5.45;5.05;;;;;;;;;;5079964;28;20234;-75
2023/06/23 10:31:21;;;;;;;5.13;4.55;;;;;;;;;;5080172;28;20404;-75
2023/06/23 10:33:48;;;;;;;6.20;5.60;;;;;;;;;;5080248;28;20758;-75
2023/06/23 10:36:14;;;;;;;4.72;4.50;;;;;;;;;;5080583;28;20200;-75
2023/06/23 10:38:42;;;;;;;4.93;4.57;;;;;;;;;;5079781;28;20487;-75
2023/06/23 10:41:11;;;;;;;5.60;4.97;;;;;;;;;;5079992;28;20253;-75
2023/06/23 10:43:40;;;;;;;5.53;5.05;;;;;;;;;;5079497;28;20380;-75
2023/06/23 10:46:07;;;;;;;5.18;4.88;;;;;;;;;;5076029;28;20208;-75
2023/06/23 10:48:33;;;;;;;5.53;5.07;;;;;;;;;;5080040;28;20214;-75
2023/06/23 10:51:00;;;;;;;7.00;5.40;;;;;;;;;;5079826;28;20212;-75
2023/06/23 10:53:28;;;;;;;5.47;5.00;;;;;;;;;;5079771;28;20238;-75
2023/06/23 10:55:55;;;;;;;6.13;5.63;;;;;;;;;;5079679;28;20235;-75
2023/06/23 10:58:23;;;;;;;6.55;5.32;;;;;;;;;;5079749;28;20211;-75
2023/06/23 11:00:58;;;;;;;6.97;5.70;;;;;;;;;;5079111;28;20204;-75
2023/06/23 11:03:25;;;;;;;9.27;5.72;;;;;;;;;;5079742;28;20199;-75
2023/06/23 11:05:52;;;;;;;6.47;5.80;;;;;;;;;;5079022;28;20204;-75
2023/06/23 11:08:19;;;;;;;6.38;5.88;;;;;;;;;;5079509;28;20219;-75
2023/06/23 11:10:49;;;;;;;6.88;5.35;;;;;;;;;;5079493;28;20207;-75
2023/06/23 11:13:16;;;;;;;11.38;6.32;;;;;;;;;;5078270;28;20252;-75
2023/06/23 11:15:48;;;;;;;6.03;5.22;;;;;;;;;;5079207;28;20283;-75
2023/06/23 11:18:14;;;;;;;6.25;5.75;;;;;;;;;;5079814;28;20203;-75
2023/06/23 11:20:41;;;;;;;5.60;5.10;;;;;;;;;;5079724;28;20275;-75
2023/06/23 11:23:08;;;;;;;5.07;4.70;;;;;;;;;;5079389;28;20196;-75
2023/06/23 11:25:36;;;;;;;4.50;4.10;;;;;;;;;;5079867;28;20411;-75
2023/06/23 11:28:21;;;;;;;4.85;4.20;;;;;;;;;;5079044;28;20424;-75
2023/06/23 11:30:53;;;;;;;4.60;4.28;;;;;;;;;;5079337;28;20210;-75
2023/06/23 11:33:26;;;;;;;5.22;4.82;;;;;;;;;;5079146;28;20227;-75
2023/06/23 11:35:53;;;;;;;5.28;4.78;;;;;;;;;;5079381;28;20372;-75
2023/06/23 11:38:20;;;;;;;5.45;5.05;;;;;;;;;;5079515;28;20242;-75
2023/06/23 11:40:46;;;;;;;6.63;4.82;;;;;;;;;;5078788;28;20204;-75
2023/06/23 11:43:14;;;;;;;5.13;4.68;;;;;;;;;;5078907;28;20480;-75
2023/06/23 11:45:45;;;;;;;4.70;4.45;;;;;;;;;;5079059;28;20212;-75
2023/06/23 11:48:13;;;;;;;5.25;4.72;;;;;;;;;;5073582;28;20280;-75
2023/06/23 11:50:41;;;;;;;7.15;4.60;;;;;;;;;;5079290;28;20211;-75
2023/06/23 11:53:08;;;;;;;4.90;4.47;;;;;;;;;;5078629;28;20231;-75
2023/06/23 11:55:34;;;;;;;4.80;4.28;;;;;;;;;;5078874;28;20202;-75
2023/06/23 11:58:00;;;;;;;8.48;4.53;;;;;;;;;;5078961;28;20207;-74
2023/06/23 12:00:26;;;;;;;4.30;4.10;;;;;;;;;;5079101;28;20406;-74
2023/06/23 12:02:54;;;;;;;4.82;4.43;;;;;;;;;;5078946;28;20211;-74
2023/06/23 12:05:22;;;;;;;5.07;4.15;;;;;;;;;;5078773;28;20279;-74
2023/06/23 12:07:48;;;;;;;5.32;4.93;;;;;;;;;;5079107;28;20527;-74
2023/06/23 12:10:16;;;;;;;7.25;4.68;;;;;;;;;;5078776;28;20410;-75
2023/06/23 12:12:43;;;;;;;8.85;7.03;;;;;;;;;;5078881;28;20519;-75
2023/06/23 12:15:10;;;;;;;101.50;57.05;;;;;;;;;;5078224;28;20274;-75
2023/06/23 12:17:40;;;;;;;596.67;332.27;;;;;;;;;;5078761;28;20204;-74
2023/06/23 12:20:07;;;;;;;637.13;332.40;;;;;;;;;;5078619;28;20204;-75
2023/06/23 12:22:37;;;;;;;1364.05;683.72;;;;;;;;;;5078869;28;20200;-75
2023/06/23 12:25:04;;;;;;;1232.03;701.75;;;;;;;;;;5080085;28;20207;-75
2023/06/23 12:27:30;;;;;;;1192.80;675.70;;;;;;;;;;5077641;28;20247;-75
2023/06/23 12:29:56;;;;;;;103.28;42.20;;;;;;;;;;5082392;28;20249;-75
2023/06/23 12:32:28;;;;;;;281.13;104.90;;;;;;;;;;5082223;28;20526;-75
2023/06/23 12:34:56;;;;;;;235.82;107.78;;;;;;;;;;5082566;28;20567;-75
2023/06/23 12:37:22;;;;;;;43.03;22.08;;;;;;;;;;5082176;28;20204;-75
2023/06/23 12:39:54;;;;;;;11.82;5.90;;;;;;;;;;5082206;28;20227;-75
2023/06/23 12:42:21;;;;;;;20.45;14.13;;;;;;;;;;5082491;28;20204;-75
2023/06/23 12:44:48;;;;;;;18.17;13.07;;;;;;;;;;5079599;28;20234;-62
2023/06/23 12:47:15;;;;;;;5.47;4.97;;;;;;;;;;5081858;28;20737;-63
2023/06/23 12:49:41;;;;;;;5.30;4.85;;;;;;;;;;5081715;28;20204;-63
2023/06/23 12:52:10;;;;;;;5.20;4.75;;;;;;;;;;5082011;28;20208;-63
2023/06/23 12:54:36;;;;;;;4.70;4.40;;;;;;;;;;5083396;28;20234;-62
2023/06/23 12:57:04;;;;;;;4.55;4.15;;;;;;;;;;5083712;28;20208;-62
2023/06/23 12:59:30;;;;;;;4.90;4.47;;;;;;;;;;5083012;28;20207;-63
2023/06/23 13:01:58;;;;;;;5.57;4.65;;;;;;;;;;5082623;28;20200;-62
2023/06/23 13:04:24;;;;;;;6.68;4.25;;;;;;;;;;5082234;28;20196;-62
2023/06/23 13:06:51;;;;;;;4.85;4.40;;;;;;;;;;5082186;28;20230;-62
2023/06/23 13:09:17;;;;;;;4.90;4.47;;;;;;;;;;5081734;28;20208;-62
2023/06/23 13:11:44;;;;;;;4.65;4.35;;;;;;;;;;5081266;28;20516;-62
2023/06/23 13:14:12;;;;;;;4.30;4.00;;;;;;;;;;5081412;28;20220;-62
2023/06/23 13:16:38;;;;;;;4.53;4.10;;;;;;;;;;5082441;28;20237;-62
2023/06/23 13:19:04;;;;;;;4.22;3.70;;;;;;;;;;5081511;28;20208;-62
2023/06/23 13:21:31;;;;;;;5.72;4.38;;;;;;;;;;5081804;28;20204;-62
2023/06/23 13:23:57;;;;;;;4.35;4.05;;;;;;;;;;5082049;28;20500;-62
2023/06/23 13:26:23;;;;;;;9.55;5.40;;;;;;;;;;5082375;28;20499;-62
2023/06/23 13:28:49;;;;;;;4.50;4.25;;;;;;;;;;5082029;28;20223;-61
2023/06/23 13:31:17;;;;;;;8.77;3.85;;;;;;;;;;5082242;28;20204;-61
2023/06/23 13:33:44;;;;;;;4.28;3.97;;;;;;;;;;5081423;28;20230;-61
2023/06/23 13:36:10;;;;;;;4.60;4.30;;;;;;;;;;5081854;28;20196;-62
2023/06/23 13:38:36;;;;;;;3.40;3.15;;;;;;;;;;5080343;28;20204;-62
2023/06/23 13:41:03;;;;;;;3.38;3.15;;;;;;;;;;5080155;28;20208;-61
2023/06/23 13:43:29;;;;;;;3.30;3.10;;;;;;;;;;5082207;28;20241;-62
2023/06/23 13:45:55;;;;;;;3.47;3.17;;;;;;;;;;5081941;28;20337;-62
2023/06/23 13:48:23;;;;;;;3.00;2.88;;;;;;;;;;5080820;28;20507;-62
2023/06/23 13:50:49;;;;;;;3.15;2.85;;;;;;;;;;5080751;28;20204;-62
2023/06/23 13:53:15;;;;;;;3.17;3.08;;;;;;;;;;5079927;28;20211;-61
2023/06/23 13:55:42;;;;;;;3.42;3.17;;;;;;;;;;5081974;28;20208;-61
2023/06/23 13:58:09;;;;;;;3.10;2.92;;;;;;;;;;5081322;28;20215;-62
2023/06/23 14:00:35;;;;;;;3.50;3.20;;;;;;;;;;5081155;28;20214;-62
2023/06/23 14:03:01;;;;;;;3.28;2.97;;;;;;;;;;5081128;28;20208;-62
2023/06/23 14:05:29;;;;;;;2.80;2.70;;;;;;;;;;5081204;28;20211;-62
2023/06/23 14:07:56;;;;;;;2.95;2.80;;;;;;;;;;5081217;28;20571;-62
2023/06/23 14:10:23;;;;;;;2.95;2.80;;;;;;;;;;5080306;28;20210;-62
2023/06/23 14:12:50;;;;;;;3.17;2.97;;;;;;;;;;5081409;28;20227;-62
2023/06/23 14:15:16;;;;;;;3.30;3.00;;;;;;;;;;5080483;28;20231;-61
2023/06/23 14:17:43;;;;;;;4.05;2.67;;;;;;;;;;5080455;28;20204;-62
2023/06/23 14:20:09;;;;;;;3.60;3.00;;;;;;;;;;5080384;28;20222;-62
2023/06/23 14:22:37;;;;;;;3.47;3.20;;;;;;;;;;5080242;28;20204;-61
2023/06/23 14:25:04;;;;;;;3.58;3.10;;;;;;;;;;5080073;28;20275;-62
2023/06/23 14:27:30;;;;;;;2.78;2.58;;;;;;;;;;5079836;28;20297;-62
2023/06/23 14:29:56;;;;;;;4.57;2.95;;;;;;;;;;5079368;28;20441;-72
2023/06/23 14:32:22;;;;;;;2.70;2.60;;;;;;;;;;5080281;28;20203;-74
2023/06/23 14:34:49;;;;;;;3.00;2.78;;;;;;;;;;5079941;28;20742;-74
2023/06/23 14:37:15;;;;;;;2.78;2.42;;;;;;;;;;5080335;28;20204;-73